Time;durP1;ratioP1;P1;durP2;ratioP2;P2;SDS_P1;SDS_P2;PMS_P1;PMS_P2;Temp;Humidity;BMP_temperature;BMP_pressure;BME280_temperature;BME280_humidity;BME280_pressure;Samples;Min_cycle;Max_cycle;Signal;HPM_P1;HPM_P2
2023/09/03 00:02:11;;;;;;;0.52;0.52;;;;;;;;;;4973155;28;59276;-72
2023/09/03 00:04:36;;;;;;;0.70;0.57;;;;;;;;;;4973718;28;58718;-71
2023/09/03 00:07:01;;;;;;;0.93;0.60;;;;;;;;;;4974711;28;58584;-72
2023/09/03 00:09:26;;;;;;;0.50;0.50;;;;;;;;;;4971959;28;58448;-72
2023/09/03 00:11:51;;;;;;;0.70;0.70;;;;;;;;;;4974758;28;58835;-72
2023/09/03 00:14:16;;;;;;;0.50;0.50;;;;;;;;;;4977197;28;58439;-72
2023/09/03 00:16:42;;;;;;;0.40;0.40;;;;;;;;;;4972081;28;58439;-71
2023/09/03 00:19:07;;;;;;;0.40;0.40;;;;;;;;;;4971781;28;58520;-72
2023/09/03 00:21:32;;;;;;;1.20;0.70;;;;;;;;;;4970956;28;59690;-72
2023/09/03 00:23:57;;;;;;;0.50;0.50;;;;;;;;;;4973455;28;58592;-77
2023/09/03 00:26:26;;;;;;;1.10;1.03;;;;;;;;;;4973431;28;58462;-71
2023/09/03 00:28:51;;;;;;;0.30;0.30;;;;;;;;;;4977802;28;58540;-77
2023/09/03 00:31:17;;;;;;;0.80;0.60;;;;;;;;;;4972769;28;58273;-72
2023/09/03 00:33:42;;;;;;;1.00;0.63;;;;;;;;;;4972308;28;58526;-75
2023/09/03 00:36:09;;;;;;;0.87;0.50;;;;;;;;;;4974336;28;59352;-76
2023/09/03 00:38:34;;;;;;;1.92;1.20;;;;;;;;;;4972960;28;58496;-74
2023/09/03 00:41:00;;;;;;;0.40;0.40;;;;;;;;;;4975662;28;58811;-77
2023/09/03 00:43:26;;;;;;;0.50;0.50;;;;;;;;;;4976485;28;58438;-75
2023/09/03 00:45:51;;;;;;;1.27;0.52;;;;;;;;;;4977965;28;58590;-74
2023/09/03 00:48:18;;;;;;;0.50;0.40;;;;;;;;;;4955182;28;58669;-73
2023/09/03 00:50:44;;;;;;;0.43;0.40;;;;;;;;;;4972619;28;60326;-73
2023/09/03 00:53:09;;;;;;;0.40;0.40;;;;;;;;;;4976339;28;58391;-74
2023/09/03 00:55:35;;;;;;;0.53;0.53;;;;;;;;;;4971969;28;58571;-74
2023/09/03 00:58:00;;;;;;;0.40;0.40;;;;;;;;;;4973796;28;58375;-74
2023/09/03 01:00:25;;;;;;;0.60;0.60;;;;;;;;;;4972989;28;58874;-73
2023/09/03 01:02:52;;;;;;;0.80;0.65;;;;;;;;;;4971792;28;58530;-73
2023/09/03 01:05:18;;;;;;;0.80;0.65;;;;;;;;;;4972210;28;58500;-75
2023/09/03 01:07:43;;;;;;;1.37;0.90;;;;;;;;;;4971999;28;58945;-73
2023/09/03 01:10:08;;;;;;;1.53;0.80;;;;;;;;;;4973833;28;58396;-72
2023/09/03 01:12:46;;;;;;;0.57;0.43;;;;;;;;;;4973404;28;58391;-74
2023/09/03 01:15:14;;;;;;;0.93;0.40;;;;;;;;;;4971814;28;59702;-76
2023/09/03 01:17:39;;;;;;;0.57;0.57;;;;;;;;;;4969295;28;58309;-74
2023/09/03 01:20:05;;;;;;;0.77;0.53;;;;;;;;;;4973703;28;59313;-74
2023/09/03 01:22:49;;;;;;;1.73;0.40;;;;;;;;;;4975402;28;59195;-74
2023/09/03 01:25:32;;;;;;;0.75;0.75;;;;;;;;;;4974739;28;58473;-73
2023/09/03 01:28:16;;;;;;;1.02;0.65;;;;;;;;;;4974309;28;62861;-74
2023/09/03 01:30:42;;;;;;;0.80;0.80;;;;;;;;;;4970561;28;61792;-74
2023/09/03 01:33:07;;;;;;;0.68;0.68;;;;;;;;;;4974221;28;58313;-74
2023/09/03 01:35:33;;;;;;;0.60;0.60;;;;;;;;;;4972486;28;58921;-74
2023/09/03 01:37:58;;;;;;;0.60;0.60;;;;;;;;;;4972832;28;59980;-73
2023/09/03 01:40:23;;;;;;;0.30;0.30;;;;;;;;;;4976979;28;58316;-73
2023/09/03 01:42:48;;;;;;;0.80;0.40;;;;;;;;;;4971503;28;58468;-73
2023/09/03 01:45:14;;;;;;;0.38;0.38;;;;;;;;;;4974370;28;58734;-73
2023/09/03 01:47:43;;;;;;;0.95;0.68;;;;;;;;;;4971621;28;59765;-74
2023/09/03 01:50:14;;;;;;;1.65;0.85;;;;;;;;;;4952001;28;59953;-75
2023/09/03 01:52:42;;;;;;;0.47;0.47;;;;;;;;;;4974260;28;57849;-77
2023/09/03 01:55:09;;;;;;;0.60;0.60;;;;;;;;;;4973982;28;58849;-76
2023/09/03 01:57:39;;;;;;;0.83;0.40;;;;;;;;;;4968794;28;58505;-77
2023/09/03 02:00:07;;;;;;;1.58;0.93;;;;;;;;;;4968658;28;58551;-76
2023/09/03 02:02:33;;;;;;;0.90;0.63;;;;;;;;;;4970878;28;58335;-76
2023/09/03 02:04:58;;;;;;;0.50;0.50;;;;;;;;;;4974359;28;58414;-77
2023/09/03 02:07:23;;;;;;;0.33;0.33;;;;;;;;;;4976906;28;58532;-77
2023/09/03 02:09:49;;;;;;;0.60;0.60;;;;;;;;;;4972690;28;58451;-75
2023/09/03 02:12:15;;;;;;;0.63;0.50;;;;;;;;;;4971090;28;58381;-77
2023/09/03 02:14:41;;;;;;;0.80;0.50;;;;;;;;;;4973379;28;59397;-75
2023/09/03 02:17:06;;;;;;;0.50;0.50;;;;;;;;;;4971279;28;59267;-74
2023/09/03 02:19:31;;;;;;;0.23;0.23;;;;;;;;;;4973433;28;58321;-77
2023/09/03 02:21:56;;;;;;;0.33;0.33;;;;;;;;;;4972954;28;58599;-75
2023/09/03 02:24:21;;;;;;;0.60;0.50;;;;;;;;;;4970880;28;58582;-78
2023/09/03 02:26:47;;;;;;;0.43;0.40;;;;;;;;;;4968851;28;59540;-77
2023/09/03 02:29:12;;;;;;;0.30;0.30;;;;;;;;;;4970773;28;58612;-77
2023/09/03 02:31:37;;;;;;;4.83;0.77;;;;;;;;;;4969877;28;58409;-73
2023/09/03 02:34:04;;;;;;;0.60;0.60;;;;;;;;;;4965680;28;59873;-73
2023/09/03 02:36:30;;;;;;;0.50;0.50;;;;;;;;;;4966389;28;58289;-73
2023/09/03 02:39:00;;;;;;;0.55;0.55;;;;;;;;;;4966427;28;58376;-72
2023/09/03 02:41:25;;;;;;;0.85;0.85;;;;;;;;;;4967608;28;58828;-71
2023/09/03 02:43:50;;;;;;;0.50;0.50;;;;;;;;;;4967130;28;58587;-73
2023/09/03 02:46:15;;;;;;;0.50;0.50;;;;;;;;;;4967429;28;58418;-76
2023/09/03 02:48:41;;;;;;;0.67;0.60;;;;;;;;;;4965350;28;59234;-73
2023/09/03 02:51:06;;;;;;;0.50;0.50;;;;;;;;;;4964134;28;58415;-73
2023/09/03 02:53:31;;;;;;;0.70;0.70;;;;;;;;;;4968551;28;59742;-72
2023/09/03 02:55:57;;;;;;;0.60;0.60;;;;;;;;;;4963137;28;58847;-73
2023/09/03 02:58:22;;;;;;;1.15;0.50;;;;;;;;;;4964923;28;58412;-73
2023/09/03 03:00:47;;;;;;;0.43;0.43;;;;;;;;;;4971452;28;58536;-71
2023/09/03 03:03:12;;;;;;;1.85;0.43;;;;;;;;;;4964516;28;59012;-72
2023/09/03 03:05:38;;;;;;;0.50;0.50;;;;;;;;;;4964408;28;58466;-73
2023/09/03 03:08:04;;;;;;;0.50;0.50;;;;;;;;;;4968051;28;58367;-72
2023/09/03 03:10:29;;;;;;;0.45;0.45;;;;;;;;;;4946993;28;58377;-73
2023/09/03 03:12:54;;;;;;;0.60;0.60;;;;;;;;;;4968004;28;59767;-72
2023/09/03 03:15:19;;;;;;;0.40;0.40;;;;;;;;;;4965551;28;59700;-71
2023/09/03 03:17:44;;;;;;;0.60;0.60;;;;;;;;;;4967389;28;58447;-72
2023/09/03 03:20:10;;;;;;;0.57;0.57;;;;;;;;;;4968469;28;59100;-72
2023/09/03 03:22:35;;;;;;;0.47;0.47;;;;;;;;;;4965197;28;58673;-71
2023/09/03 03:25:00;;;;;;;0.45;0.45;;;;;;;;;;4966358;28;58440;-74
2023/09/03 03:27:25;;;;;;;0.50;0.50;;;;;;;;;;4972768;28;58720;-72
2023/09/03 03:29:51;;;;;;;0.52;0.52;;;;;;;;;;4976995;28;58668;-72
2023/09/03 03:32:18;;;;;;;0.50;0.50;;;;;;;;;;4970382;28;58696;-72
2023/09/03 03:34:44;;;;;;;0.55;0.55;;;;;;;;;;4968604;28;58348;-72
2023/09/03 03:37:09;;;;;;;0.67;0.60;;;;;;;;;;4969467;28;58040;-72
2023/09/03 03:39:35;;;;;;;0.80;0.80;;;;;;;;;;4971031;28;59358;-72
2023/09/03 03:42:00;;;;;;;0.38;0.38;;;;;;;;;;4972566;28;59410;-73
2023/09/03 03:44:25;;;;;;;0.83;0.67;;;;;;;;;;4972861;28;58375;-72
2023/09/03 03:46:50;;;;;;;0.50;0.50;;;;;;;;;;4970462;28;58563;-72
2023/09/03 03:49:15;;;;;;;0.40;0.40;;;;;;;;;;4971822;28;58547;-72
2023/09/03 03:51:40;;;;;;;0.40;0.40;;;;;;;;;;4971555;28;59743;-72
2023/09/03 03:54:06;;;;;;;0.38;0.30;;;;;;;;;;4970125;28;57916;-72
2023/09/03 03:56:31;;;;;;;0.30;0.30;;;;;;;;;;4951789;28;58325;-71
2023/09/03 03:58:56;;;;;;;0.47;0.47;;;;;;;;;;4971683;28;59446;-72
2023/09/03 04:01:24;;;;;;;0.30;0.30;;;;;;;;;;4970754;28;58464;-72
2023/09/03 04:03:49;;;;;;;;;;;;;;;;;;4973426;28;58416;-72
2023/09/03 04:06:15;;;;;;;0.40;0.40;;;;;;;;;;4972000;28;58630;-71
2023/09/03 04:08:40;;;;;;;0.50;0.50;;;;;;;;;;4969673;28;58560;-72
2023/09/03 04:11:07;;;;;;;0.75;0.35;;;;;;;;;;4943473;28;58445;-72
2023/09/03 04:13:32;;;;;;;0.40;0.40;;;;;;;;;;4967072;28;58473;-71
2023/09/03 04:15:58;;;;;;;0.63;0.50;;;;;;;;;;4973995;28;59562;-72
2023/09/03 04:18:24;;;;;;;0.32;0.32;;;;;;;;;;4968424;28;60047;-73
2023/09/03 04:20:58;;;;;;;0.40;0.40;;;;;;;;;;4969984;28;58520;-71
2023/09/03 04:23:24;;;;;;;0.63;0.63;;;;;;;;;;4964496;28;58238;-73
2023/09/03 04:25:51;;;;;;;0.43;0.43;;;;;;;;;;4974550;28;58669;-72
2023/09/03 04:28:16;;;;;;;0.97;0.70;;;;;;;;;;4971247;28;58609;-71
2023/09/03 04:30:41;;;;;;;0.50;0.50;;;;;;;;;;4971300;28;58528;-72
2023/09/03 04:33:07;;;;;;;0.50;0.50;;;;;;;;;;4969890;28;59387;-72
2023/09/03 04:35:33;;;;;;;0.55;0.50;;;;;;;;;;4969075;28;57850;-73
2023/09/03 04:37:58;;;;;;;0.50;0.50;;;;;;;;;;4970729;28;59218;-72
2023/09/03 04:40:24;;;;;;;0.35;0.35;;;;;;;;;;4972129;28;58572;-73
2023/09/03 04:42:49;;;;;;;0.38;0.38;;;;;;;;;;4972849;28;58402;-72
2023/09/03 04:45:14;;;;;;;0.47;0.47;;;;;;;;;;4972661;28;58404;-71
2023/09/03 04:47:39;;;;;;;0.77;0.40;;;;;;;;;;4971393;28;58383;-72
2023/09/03 04:50:04;;;;;;;0.50;0.50;;;;;;;;;;4973407;28;58260;-73
2023/09/03 04:52:30;;;;;;;0.55;0.55;;;;;;;;;;4970161;28;59463;-72
2023/09/03 04:54:55;;;;;;;0.40;0.40;;;;;;;;;;4970685;28;59267;-72
2023/09/03 04:57:20;;;;;;;0.85;0.85;;;;;;;;;;4954139;28;60188;-72
2023/09/03 04:59:45;;;;;;;0.40;0.40;;;;;;;;;;4972173;28;58438;-72
2023/09/03 05:02:11;;;;;;;0.30;0.30;;;;;;;;;;4953095;28;58205;-73
2023/09/03 05:04:36;;;;;;;0.60;0.43;;;;;;;;;;4972615;28;58379;-72
2023/09/03 05:07:02;;;;;;;0.32;0.30;;;;;;;;;;4973945;28;58371;-72
2023/09/03 05:09:27;;;;;;;0.50;0.50;;;;;;;;;;4971374;28;58389;-72
2023/09/03 05:11:53;;;;;;;0.57;0.57;;;;;;;;;;4970791;28;58474;-72
2023/09/03 05:14:18;;;;;;;0.47;0.47;;;;;;;;;;4969853;28;58816;-71
2023/09/03 05:16:43;;;;;;;1.42;0.60;;;;;;;;;;4967593;28;58553;-73
2023/09/03 05:19:08;;;;;;;0.60;0.60;;;;;;;;;;4972790;28;59196;-72
2023/09/03 05:21:33;;;;;;;0.40;0.40;;;;;;;;;;4969168;28;58594;-72
2023/09/03 05:24:00;;;;;;;0.40;0.40;;;;;;;;;;4969988;28;58444;-73
2023/09/03 05:26:25;;;;;;;0.60;0.60;;;;;;;;;;4969506;28;58523;-72
2023/09/03 05:28:50;;;;;;;0.63;0.57;;;;;;;;;;4971132;28;58528;-72
2023/09/03 05:31:15;;;;;;;0.45;0.40;;;;;;;;;;4970176;28;58394;-72
2023/09/03 05:33:40;;;;;;;0.43;0.43;;;;;;;;;;4947567;28;59864;-71
2023/09/03 05:36:06;;;;;;;0.53;0.53;;;;;;;;;;4968019;28;58423;-72
2023/09/03 05:38:31;;;;;;;0.40;0.40;;;;;;;;;;4969108;28;58376;-72
2023/09/03 05:40:58;;;;;;;0.70;0.70;;;;;;;;;;4971030;28;58614;-71
2023/09/03 05:43:24;;;;;;;0.73;0.68;;;;;;;;;;4959519;28;59627;-75
2023/09/03 05:45:49;;;;;;;0.60;0.60;;;;;;;;;;4967489;28;59004;-72
2023/09/03 05:48:14;;;;;;;0.60;0.60;;;;;;;;;;4969646;28;58361;-71
2023/09/03 05:50:39;;;;;;;0.52;0.52;;;;;;;;;;4968769;28;59813;-71
2023/09/03 05:53:04;;;;;;;0.53;0.53;;;;;;;;;;4968640;28;58772;-73
2023/09/03 05:55:29;;;;;;;0.60;0.60;;;;;;;;;;4964480;28;58195;-72
2023/09/03 05:57:55;;;;;;;0.77;0.77;;;;;;;;;;4968697;28;58404;-73
2023/09/03 06:00:20;;;;;;;0.93;0.50;;;;;;;;;;4970247;28;59427;-71
2023/09/03 06:02:45;;;;;;;0.63;0.63;;;;;;;;;;4953804;28;61178;-71
2023/09/03 06:05:10;;;;;;;0.90;0.90;;;;;;;;;;4970364;28;59015;-70
2023/09/03 06:07:36;;;;;;;0.60;0.60;;;;;;;;;;4970588;28;58166;-71
2023/09/03 06:10:01;;;;;;;0.77;0.70;;;;;;;;;;4971189;28;59660;-70
2023/09/03 06:12:26;;;;;;;0.57;0.50;;;;;;;;;;4968936;28;59048;-71
2023/09/03 06:14:51;;;;;;;0.83;0.83;;;;;;;;;;4970929;28;58432;-71
2023/09/03 06:17:16;;;;;;;0.75;0.75;;;;;;;;;;4968260;28;58683;-72
2023/09/03 06:19:42;;;;;;;0.40;0.40;;;;;;;;;;4971098;28;59391;-72
2023/09/03 06:22:08;;;;;;;0.65;0.65;;;;;;;;;;4970319;28;59446;-73
2023/09/03 06:24:33;;;;;;;0.40;0.40;;;;;;;;;;4969396;28;59200;-69
2023/09/03 06:26:58;;;;;;;0.60;0.40;;;;;;;;;;4968693;28;58341;-68
2023/09/03 06:29:23;;;;;;;0.43;0.43;;;;;;;;;;4964823;28;59715;-70
2023/09/03 06:31:48;;;;;;;0.50;0.50;;;;;;;;;;4968741;28;58380;-68
2023/09/03 06:34:13;;;;;;;0.80;0.80;;;;;;;;;;4970506;28;58484;-73
2023/09/03 06:36:39;;;;;;;0.43;0.43;;;;;;;;;;4969451;28;58414;-72
2023/09/03 06:39:04;;;;;;;0.50;0.50;;;;;;;;;;4968950;28;58823;-72
2023/09/03 06:41:29;;;;;;;0.50;0.50;;;;;;;;;;4973224;28;58563;-72
2023/09/03 06:43:55;;;;;;;0.60;0.60;;;;;;;;;;4967623;28;58749;-73
2023/09/03 06:46:21;;;;;;;0.82;0.82;;;;;;;;;;4969378;28;58458;-72
2023/09/03 06:48:46;;;;;;;0.60;0.60;;;;;;;;;;4974844;28;59220;-72
2023/09/03 06:51:11;;;;;;;0.50;0.50;;;;;;;;;;4968194;28;58974;-72
2023/09/03 06:53:36;;;;;;;0.52;0.52;;;;;;;;;;4956479;28;58427;-72
2023/09/03 06:56:02;;;;;;;0.70;0.70;;;;;;;;;;4970172;28;59533;-73
2023/09/03 06:58:27;;;;;;;0.83;0.50;;;;;;;;;;4967525;28;58533;-73
2023/09/03 07:00:52;;;;;;;0.70;0.70;;;;;;;;;;4970810;28;58597;-73
2023/09/03 07:03:17;;;;;;;0.57;0.57;;;;;;;;;;4969813;28;60377;-72
2023/09/03 07:05:42;;;;;;;1.38;0.90;;;;;;;;;;4969002;28;58399;-72
2023/09/03 07:08:07;;;;;;;1.20;0.47;;;;;;;;;;4968713;28;58713;-71
2023/09/03 07:10:33;;;;;;;1.50;0.60;;;;;;;;;;4969399;28;58529;-74
2023/09/03 07:12:58;;;;;;;0.40;0.40;;;;;;;;;;4970833;28;58307;-71
2023/09/03 07:15:24;;;;;;;0.40;0.40;;;;;;;;;;4970789;28;58767;-71
2023/09/03 07:17:49;;;;;;;0.93;0.60;;;;;;;;;;4969246;28;58996;-72
2023/09/03 07:20:14;;;;;;;0.30;0.30;;;;;;;;;;4971892;28;58719;-73
2023/09/03 07:22:40;;;;;;;0.53;0.53;;;;;;;;;;4965676;28;58787;-73
2023/09/03 07:25:06;;;;;;;0.57;0.57;;;;;;;;;;4971483;28;58530;-70
2023/09/03 07:27:32;;;;;;;1.13;1.02;;;;;;;;;;4968202;28;58751;-71
2023/09/03 07:29:57;;;;;;;0.32;0.32;;;;;;;;;;4967707;28;58467;-70
2023/09/03 07:32:23;;;;;;;0.87;0.80;;;;;;;;;;4969359;28;58504;-71
2023/09/03 07:34:49;;;;;;;0.68;0.65;;;;;;;;;;4971189;28;58441;-71
2023/09/03 07:37:14;;;;;;;1.35;0.38;;;;;;;;;;4967840;28;58559;-72
2023/09/03 07:39:40;;;;;;;0.82;0.40;;;;;;;;;;4969488;28;58375;-73
2023/09/03 07:42:05;;;;;;;0.57;0.57;;;;;;;;;;4970106;28;58411;-74
2023/09/03 07:44:30;;;;;;;0.63;0.63;;;;;;;;;;4968132;28;58424;-68
2023/09/03 07:46:55;;;;;;;2.73;0.67;;;;;;;;;;4968005;28;58570;-69
2023/09/03 07:49:20;;;;;;;0.67;0.40;;;;;;;;;;4967304;28;58922;-69
2023/09/03 07:51:45;;;;;;;1.02;0.68;;;;;;;;;;4969011;28;58440;-66
2023/09/03 07:54:11;;;;;;;2.57;0.60;;;;;;;;;;4964751;28;58576;-66
2023/09/03 07:56:36;;;;;;;0.98;0.80;;;;;;;;;;4964239;28;58408;-66
2023/09/03 07:59:02;;;;;;;1.20;1.10;;;;;;;;;;4971217;28;58448;-66
2023/09/03 08:01:27;;;;;;;0.47;0.45;;;;;;;;;;4968687;28;58584;-67
2023/09/03 08:03:52;;;;;;;0.80;0.57;;;;;;;;;;4964679;28;58543;-67
2023/09/03 08:06:17;;;;;;;0.87;0.60;;;;;;;;;;4968118;28;58554;-67
2023/09/03 08:08:43;;;;;;;8.00;0.83;;;;;;;;;;4968715;28;58580;-68
2023/09/03 08:11:08;;;;;;;0.57;0.57;;;;;;;;;;4960013;28;58578;-68
2023/09/03 08:13:33;;;;;;;2.50;0.47;;;;;;;;;;4965441;28;58638;-67
2023/09/03 08:15:58;;;;;;;0.50;0.50;;;;;;;;;;4969781;28;59015;-68
2023/09/03 08:18:23;;;;;;;1.60;0.67;;;;;;;;;;4965628;28;58400;-67
2023/09/03 08:20:49;;;;;;;0.80;0.57;;;;;;;;;;4970254;28;58586;-67
2023/09/03 08:23:14;;;;;;;3.40;1.00;;;;;;;;;;4967968;28;58497;-68
2023/09/03 08:25:40;;;;;;;2.33;0.85;;;;;;;;;;4967069;28;58233;-68
2023/09/03 08:28:07;;;;;;;2.97;1.23;;;;;;;;;;4970872;28;58439;-67
2023/09/03 08:30:32;;;;;;;0.40;0.40;;;;;;;;;;4967720;28;58908;-67
2023/09/03 08:32:57;;;;;;;3.90;0.93;;;;;;;;;;4963833;28;60719;-67
2023/09/03 08:35:22;;;;;;;1.13;0.70;;;;;;;;;;4964486;28;60349;-67
2023/09/03 08:37:47;;;;;;;1.73;1.07;;;;;;;;;;4967983;28;59038;-69
2023/09/03 08:40:12;;;;;;;1.43;1.10;;;;;;;;;;4970741;28;58758;-67
2023/09/03 08:42:40;;;;;;;1.97;0.77;;;;;;;;;;4965722;28;57889;-67
2023/09/03 08:45:05;;;;;;;;;;;;;;;;;;4966040;28;58435;-67
2023/09/03 08:47:31;;;;;;;4.15;0.75;;;;;;;;;;4968725;28;59447;-67
2023/09/03 08:49:58;;;;;;;2.53;1.00;;;;;;;;;;4969941;28;58450;-67
2023/09/03 08:52:23;;;;;;;2.85;0.50;;;;;;;;;;4971329;28;59744;-68
2023/09/03 08:54:49;;;;;;;2.17;0.70;;;;;;;;;;4970486;28;59155;-66
2023/09/03 08:57:14;;;;;;;5.60;0.70;;;;;;;;;;4971015;28;58731;-66
2023/09/03 08:59:39;;;;;;;0.63;0.60;;;;;;;;;;4969767;28;59469;-67
2023/09/03 09:02:08;;;;;;;2.58;0.90;;;;;;;;;;4970989;28;59775;-66
2023/09/03 09:04:33;;;;;;;2.92;1.00;;;;;;;;;;4971359;28;58539;-67
2023/09/03 09:06:59;;;;;;;1.03;0.80;;;;;;;;;;4970380;28;58626;-67
2023/09/03 09:09:26;;;;;;;1.25;0.63;;;;;;;;;;4970009;28;60419;-68
2023/09/03 09:11:55;;;;;;;1.05;0.80;;;;;;;;;;4964354;28;58499;-68
2023/09/03 09:14:25;;;;;;;3.22;1.23;;;;;;;;;;4969569;28;59038;-67
2023/09/03 09:16:50;;;;;;;0.73;0.60;;;;;;;;;;4967738;28;58315;-67
2023/09/03 09:19:16;;;;;;;3.83;1.33;;;;;;;;;;4966125;28;58500;-67
2023/09/03 09:21:41;;;;;;;4.47;1.23;;;;;;;;;;4966748;28;59587;-67
2023/09/03 09:24:06;;;;;;;2.87;1.00;;;;;;;;;;4970243;28;58387;-67
2023/09/03 09:26:31;;;;;;;1.60;0.70;;;;;;;;;;4966057;28;58617;-67
2023/09/03 09:28:57;;;;;;;2.27;1.00;;;;;;;;;;4963645;28;59061;-67
2023/09/03 09:31:33;;;;;;;1.95;1.35;;;;;;;;;;4965264;28;58392;-67
2023/09/03 09:33:59;;;;;;;1.20;0.90;;;;;;;;;;4964109;28;59746;-67
2023/09/03 09:36:25;;;;;;;1.05;0.70;;;;;;;;;;4965021;28;58536;-67
2023/09/03 09:38:51;;;;;;;7.43;1.00;;;;;;;;;;4965937;28;58615;-68
2023/09/03 09:41:26;;;;;;;2.35;1.05;;;;;;;;;;4963748;28;59252;-67
2023/09/03 09:43:51;;;;;;;2.35;0.90;;;;;;;;;;4967480;28;58579;-67
2023/09/03 09:46:27;;;;;;;2.17;1.67;;;;;;;;;;4969587;28;59019;-67
2023/09/03 09:48:56;;;;;;;2.17;1.10;;;;;;;;;;4967489;28;58805;-68
2023/09/03 09:51:21;;;;;;;3.05;0.80;;;;;;;;;;4969781;28;58331;-68
2023/09/03 09:53:53;;;;;;;12.10;1.77;;;;;;;;;;4969919;28;58950;-67
2023/09/03 09:56:19;;;;;;;1.45;1.35;;;;;;;;;;4965553;28;58460;-69
2023/09/03 09:58:44;;;;;;;2.63;1.00;;;;;;;;;;4965348;28;58560;-68
2023/09/03 10:01:09;;;;;;;3.77;1.67;;;;;;;;;;4965598;28;58860;-69
2023/09/03 10:03:44;;;;;;;2.50;1.23;;;;;;;;;;4964030;28;57916;-67
2023/09/03 10:06:12;;;;;;;3.53;1.38;;;;;;;;;;4972200;28;58834;-68
2023/09/03 10:08:37;;;;;;;5.17;1.83;;;;;;;;;;4969614;28;58667;-68
2023/09/03 10:11:02;;;;;;;5.30;1.17;;;;;;;;;;4967212;28;58410;-69
2023/09/03 10:13:29;;;;;;;2.22;0.80;;;;;;;;;;4968776;28;58544;-69
2023/09/03 10:15:54;;;;;;;2.42;1.20;;;;;;;;;;4971697;28;58305;-69
2023/09/03 10:18:20;;;;;;;3.30;1.37;;;;;;;;;;4972806;28;58501;-68
2023/09/03 10:20:46;;;;;;;3.92;1.02;;;;;;;;;;4968439;28;60160;-68
2023/09/03 10:23:12;;;;;;;1.75;1.30;;;;;;;;;;4969418;28;58759;-69
2023/09/03 10:25:38;;;;;;;1.92;0.80;;;;;;;;;;4968324;28;58769;-67
2023/09/03 10:28:05;;;;;;;1.13;1.00;;;;;;;;;;4971446;28;58579;-67
2023/09/03 10:30:33;;;;;;;2.67;0.90;;;;;;;;;;4969311;28;58392;-69
2023/09/03 10:32:59;;;;;;;4.47;1.27;;;;;;;;;;4969301;28;59757;-67
2023/09/03 10:35:24;;;;;;;1.70;0.70;;;;;;;;;;4969343;28;59153;-67
2023/09/03 10:37:52;;;;;;;2.90;0.63;;;;;;;;;;4971331;28;58198;-67
2023/09/03 10:40:18;;;;;;;;;;;;;;;;;;4969724;28;59029;-67
2023/09/03 10:42:44;;;;;;;6.57;0.65;;;;;;;;;;4970161;28;58477;-67
2023/09/03 10:45:12;;;;;;;3.33;0.80;;;;;;;;;;4970778;28;58687;-67
2023/09/03 10:47:37;;;;;;;;;;;;;;;;;;4968910;28;58430;-68
2023/09/03 10:50:02;;;;;;;5.63;1.90;;;;;;;;;;4970136;28;58570;-67
2023/09/03 10:52:40;;;;;;;6.73;1.50;;;;;;;;;;4966505;28;59464;-68
2023/09/03 10:55:08;;;;;;;1.02;0.80;;;;;;;;;;4967846;28;59082;-67
2023/09/03 10:57:33;;;;;;;3.13;1.00;;;;;;;;;;4966674;28;58540;-67
2023/09/03 10:59:58;;;;;;;1.83;0.90;;;;;;;;;;4970955;28;59669;-67
2023/09/03 11:02:24;;;;;;;3.50;1.60;;;;;;;;;;4967873;28;58339;-68
2023/09/03 11:05:09;;;;;;;2.95;1.25;;;;;;;;;;4970072;28;59010;-67
2023/09/03 11:07:34;;;;;;;2.33;1.42;;;;;;;;;;4969732;28;58441;-67
2023/09/03 11:10:19;;;;;;;3.05;1.25;;;;;;;;;;4968462;28;58585;-67
2023/09/03 11:12:44;;;;;;;1.42;1.00;;;;;;;;;;4966074;28;64355;-71
2023/09/03 11:15:10;;;;;;;4.20;1.23;;;;;;;;;;4965269;28;58547;-71
2023/09/03 11:17:35;;;;;;;1.92;0.80;;;;;;;;;;4952118;28;58439;-70
2023/09/03 11:20:00;;;;;;;5.20;0.90;;;;;;;;;;4971018;28;58357;-71
2023/09/03 11:22:26;;;;;;;2.73;1.20;;;;;;;;;;4963816;28;58558;-71
2023/09/03 11:24:51;;;;;;;2.65;1.45;;;;;;;;;;4970452;28;58784;-71
2023/09/03 11:27:16;;;;;;;1.25;0.80;;;;;;;;;;4967762;28;58678;-72
2023/09/03 11:29:41;;;;;;;2.97;1.00;;;;;;;;;;4971951;28;58488;-70
2023/09/03 11:32:07;;;;;;;4.37;1.23;;;;;;;;;;4954957;28;60517;-71
2023/09/03 11:34:32;;;;;;;3.63;1.17;;;;;;;;;;4971109;28;58754;-71
2023/09/03 11:36:57;;;;;;;4.43;0.93;;;;;;;;;;4973787;28;58417;-71
2023/09/03 11:39:23;;;;;;;2.00;1.17;;;;;;;;;;4971139;28;60633;-70
2023/09/03 11:41:48;;;;;;;3.33;1.15;;;;;;;;;;4972752;28;58910;-70
2023/09/03 11:44:14;;;;;;;1.93;0.97;;;;;;;;;;4968604;28;58682;-70
2023/09/03 11:46:39;;;;;;;2.88;1.02;;;;;;;;;;4963213;28;59010;-74
2023/09/03 11:49:05;;;;;;;4.30;0.93;;;;;;;;;;4973753;28;58365;-77
2023/09/03 11:51:30;;;;;;;3.22;0.70;;;;;;;;;;4970715;28;59728;-75
2023/09/03 11:53:56;;;;;;;16.17;1.20;;;;;;;;;;4972342;28;58704;-80
2023/09/03 11:56:22;;;;;;;3.13;1.23;;;;;;;;;;4973201;28;57844;-76
2023/09/03 11:58:50;;;;;;;5.93;1.95;;;;;;;;;;4971871;28;59368;-75
2023/09/03 12:01:16;;;;;;;;;;;;;;;;;;4975797;28;58602;-77
2023/09/03 12:03:41;;;;;;;3.38;1.13;;;;;;;;;;4969569;28;58748;-75
2023/09/03 12:06:06;;;;;;;4.72;1.48;;;;;;;;;;4970454;28;58270;-76
2023/09/03 12:08:32;;;;;;;4.20;0.93;;;;;;;;;;4973370;28;58484;-76
2023/09/03 12:10:57;;;;;;;5.13;1.23;;;;;;;;;;4969722;28;58640;-77
2023/09/03 12:13:32;;;;;;;1.60;0.90;;;;;;;;;;4971292;28;58320;-72
2023/09/03 12:16:07;;;;;;;3.75;0.90;;;;;;;;;;4973602;28;58435;-70
2023/09/03 12:18:33;;;;;;;5.63;1.30;;;;;;;;;;4972845;28;59795;-71
2023/09/03 12:20:58;;;;;;;4.95;2.15;;;;;;;;;;4974128;28;59842;-73
2023/09/03 12:23:23;;;;;;;3.87;1.70;;;;;;;;;;4970705;28;58357;-67
2023/09/03 12:25:49;;;;;;;7.60;1.33;;;;;;;;;;4971939;28;58568;-73
2023/09/03 12:28:15;;;;;;;3.13;1.40;;;;;;;;;;4975829;28;58576;-73
2023/09/03 12:30:56;;;;;;;3.65;0.90;;;;;;;;;;4969506;28;66406;-75
2023/09/03 12:33:25;;;;;;;4.20;1.50;;;;;;;;;;4972143;28;58546;-76
2023/09/03 12:36:13;;;;;;;5.18;1.23;;;;;;;;;;4969072;28;58433;-76
2023/09/03 12:38:57;;;;;;;2.13;0.95;;;;;;;;;;4972046;28;58655;-75
2023/09/03 12:41:24;;;;;;;7.47;1.30;;;;;;;;;;4973163;28;58678;-74
2023/09/03 12:43:49;;;;;;;7.72;1.20;;;;;;;;;;4970865;28;58323;-74
2023/09/03 12:46:15;;;;;;;17.40;2.00;;;;;;;;;;4973216;28;58669;-71
2023/09/03 12:48:41;;;;;;;6.47;1.23;;;;;;;;;;4971149;28;63070;-73
2023/09/03 12:51:06;;;;;;;4.07;0.90;;;;;;;;;;4972291;28;58607;-74
2023/09/03 12:53:31;;;;;;;2.43;1.00;;;;;;;;;;4967998;28;58917;-74
2023/09/03 12:55:57;;;;;;;5.10;1.10;;;;;;;;;;4970973;28;58280;-74
2023/09/03 12:58:22;;;;;;;3.10;0.93;;;;;;;;;;4974492;28;59487;-74
2023/09/03 13:00:48;;;;;;;2.53;0.70;;;;;;;;;;4974618;28;58265;-71
2023/09/03 13:03:13;;;;;;;1.65;0.75;;;;;;;;;;4968819;28;58409;-74
2023/09/03 13:05:38;;;;;;;2.33;0.98;;;;;;;;;;4971332;28;59526;-74
2023/09/03 13:08:04;;;;;;;2.37;0.70;;;;;;;;;;4973742;28;58371;-73
2023/09/03 13:10:29;;;;;;;2.08;0.77;;;;;;;;;;4953926;28;58530;-73
2023/09/03 13:12:54;;;;;;;2.57;0.87;;;;;;;;;;4973364;28;58364;-71
2023/09/03 13:15:19;;;;;;;1.20;0.70;;;;;;;;;;4972132;28;57860;-67
2023/09/03 13:17:46;;;;;;;1.47;0.93;;;;;;;;;;4972593;28;58598;-67
2023/09/03 13:20:11;;;;;;;3.70;0.90;;;;;;;;;;4969231;28;59337;-70
2023/09/03 13:22:36;;;;;;;2.40;1.25;;;;;;;;;;4969159;28;58730;-67
2023/09/03 13:25:01;;;;;;;3.63;0.80;;;;;;;;;;4972460;28;59645;-68
2023/09/03 13:27:27;;;;;;;0.77;0.50;;;;;;;;;;4970140;28;59008;-67
2023/09/03 13:29:52;;;;;;;1.70;0.83;;;;;;;;;;4975360;28;58740;-68
2023/09/03 13:32:17;;;;;;;1.95;0.70;;;;;;;;;;4972880;28;59430;-68
2023/09/03 13:34:43;;;;;;;1.13;0.68;;;;;;;;;;4966733;28;58442;-71
2023/09/03 13:37:09;;;;;;;2.38;0.75;;;;;;;;;;4972934;28;58955;-71
2023/09/03 13:39:34;;;;;;;1.38;1.23;;;;;;;;;;4970665;28;58384;-71
2023/09/03 13:42:00;;;;;;;5.40;1.13;;;;;;;;;;4969216;28;58303;-71
2023/09/03 13:44:25;;;;;;;2.58;0.80;;;;;;;;;;4969891;28;60322;-70
2023/09/03 13:46:51;;;;;;;4.60;0.93;;;;;;;;;;4969086;28;60134;-69
2023/09/03 13:49:16;;;;;;;4.30;1.23;;;;;;;;;;4967516;28;58415;-73
2023/09/03 13:51:42;;;;;;;3.70;0.93;;;;;;;;;;4968329;28;58376;-69
2023/09/03 13:54:07;;;;;;;5.38;2.15;;;;;;;;;;4972427;28;58372;-70
2023/09/03 13:56:32;;;;;;;3.10;1.40;;;;;;;;;;4960772;28;59973;-68
2023/09/03 13:58:57;;;;;;;2.15;1.08;;;;;;;;;;4956601;28;58955;-68
2023/09/03 14:01:23;;;;;;;3.70;0.98;;;;;;;;;;4952422;28;58106;-69
2023/09/03 14:03:48;;;;;;;4.50;1.10;;;;;;;;;;4957306;28;59610;-68
2023/09/03 14:06:13;;;;;;;2.77;0.97;;;;;;;;;;4951237;28;59167;-69
2023/09/03 14:08:38;;;;;;;4.43;1.20;;;;;;;;;;4959458;28;58305;-68
2023/09/03 14:11:03;;;;;;;6.53;3.05;;;;;;;;;;4953861;28;58549;-68
2023/09/03 14:13:29;;;;;;;7.27;1.93;;;;;;;;;;4955480;28;59116;-68
2023/09/03 14:15:54;;;;;;;4.53;1.87;;;;;;;;;;4967221;28;59254;-69
2023/09/03 14:18:19;;;;;;;5.07;0.87;;;;;;;;;;4970965;28;58991;-68
2023/09/03 14:20:46;;;;;;;3.03;1.40;;;;;;;;;;4971755;28;58398;-68
2023/09/03 14:23:11;;;;;;;3.88;1.25;;;;;;;;;;4969742;28;59641;-69
2023/09/03 14:25:36;;;;;;;3.30;1.48;;;;;;;;;;4971737;28;58626;-69
2023/09/03 14:28:01;;;;;;;6.13;1.80;;;;;;;;;;4974813;28;58431;-69
2023/09/03 14:30:26;;;;;;;4.40;0.97;;;;;;;;;;4969665;28;58621;-68
2023/09/03 14:32:51;;;;;;;7.22;1.50;;;;;;;;;;4971240;28;59222;-68
2023/09/03 14:35:17;;;;;;;4.00;1.00;;;;;;;;;;4964526;28;58692;-67
2023/09/03 14:37:42;;;;;;;6.53;1.40;;;;;;;;;;4969510;28;58634;-68
2023/09/03 14:40:07;;;;;;;4.72;1.00;;;;;;;;;;4972599;28;58434;-68